createdAt,value
2019-04-21T19:11:28.675Z,9.83
2019-04-21T19:19:36.650Z,10.50
2019-04-21T19:21:35.736Z,10.37
2019-04-21T19:24:21.502Z,10.13
2019-04-21T19:26:49.740Z,11.40
2019-04-21T19:29:21.165Z,9.80
2019-04-21T19:31:46.684Z,10.43
2019-04-21T19:34:04.822Z,10.43
2019-04-21T19:36:23.662Z,10.43
2019-04-21T19:39:04.941Z,10.57
2019-04-21T19:41:38.339Z,9.43
2019-04-21T19:44:14.192Z,10.37
2019-04-21T19:46:38.261Z,10.63
2019-04-21T19:49:16.908Z,10.90
2019-04-21T19:51:36.287Z,10.27
2019-04-21T19:54:01.519Z,10.60
2019-04-21T19:56:24.136Z,10.37
2019-04-21T19:58:52.989Z,10.70
2019-04-21T20:01:21.459Z,10.03
2019-04-21T20:03:55.538Z,11.27
2019-04-21T20:06:32.999Z,11.20
2019-04-21T20:09:12.208Z,10.83
2019-04-21T20:11:37.097Z,11.07
2019-04-21T20:14:38.908Z,11.07
2019-04-21T20:16:41.744Z,11.53
2019-04-21T20:18:58.326Z,10.77
2019-04-21T20:21:20.838Z,10.77
2019-04-21T20:23:49.532Z,10.30
2019-04-21T20:26:24.627Z,10.60
2019-04-21T20:28:58.824Z,10.77
2019-04-21T20:31:36.722Z,10.13
2019-04-21T20:34:05.099Z,10.50
2019-04-21T20:36:42.903Z,10.20
2019-04-21T20:38:59.722Z,10.10
2019-04-21T20:41:37.972Z,10.30
2019-04-21T20:44:13.311Z,10.73
2019-04-21T20:46:38.572Z,11.07
2019-04-21T20:49:09.659Z,10.90
2019-04-21T20:51:43.817Z,10.33
2019-04-21T20:54:17.310Z,10.53
2019-04-21T20:56:42.024Z,10.43
2019-04-21T20:59:12.087Z,10.30
2019-04-21T21:01:46.120Z,10.33
2019-04-21T21:04:12.457Z,10.27
2019-04-21T21:06:43.693Z,9.73
2019-04-21T21:09:12.110Z,10.97
2019-04-21T21:11:54.020Z,10.50
2019-04-21T21:14:20.402Z,10.60
2019-04-21T21:16:46.379Z,10.43
2019-04-21T21:21:40.420Z,10.37
2019-04-21T21:24:15.696Z,11.00
2019-04-21T21:26:52.203Z,9.70
2019-04-21T21:29:11.306Z,9.80
2019-04-21T21:31:47.434Z,10.33
2019-04-21T21:34:24.288Z,9.57
2019-04-21T21:36:51.071Z,9.80
2019-04-21T21:39:16.548Z,9.90
2019-04-21T21:41:35.264Z,9.77
2019-04-21T21:44:05.853Z,8.90
2019-04-21T21:46:45.637Z,9.03
2019-04-21T21:49:07.527Z,9.47
2019-04-21T21:51:39.569Z,10.20
2019-04-21T21:53:59.057Z,9.73
2019-04-21T21:56:28.884Z,8.83
2019-04-21T21:59:00.736Z,9.43
2019-04-21T22:01:35.674Z,9.83
2019-04-21T22:04:04.907Z,10.83
2019-04-21T22:06:38.685Z,11.03
2019-04-21T22:08:58.549Z,10.77
2019-04-21T22:11:27.090Z,11.00
2019-04-21T22:14:02.616Z,10.53
2019-04-21T22:16:39.037Z,11.43
2019-04-21T22:19:14.261Z,11.23
2019-04-21T22:21:50.556Z,11.60
2019-04-21T22:24:03.543Z,11.20
2019-04-21T22:26:27.167Z,11.57
2019-04-21T22:28:55.931Z,11.17
2019-04-21T22:31:29.076Z,10.90
2019-04-21T22:34:00.379Z,11.27
2019-04-21T22:36:35.271Z,11.03
2019-04-21T22:39:13.314Z,11.03
2019-04-21T22:41:32.832Z,12.37
2019-04-21T22:43:55.910Z,11.17
2019-04-21T22:46:24.685Z,10.97
2019-04-21T22:48:59.736Z,11.80
2019-04-21T22:51:31.546Z,11.53
2019-04-21T22:53:55.846Z,11.83
2019-04-21T22:56:27.033Z,11.87
2019-04-21T22:58:54.905Z,12.67
2019-04-21T23:01:28.550Z,11.53
2019-04-21T23:04:00.424Z,11.67
2019-04-21T23:06:27.546Z,11.10
2019-04-21T23:08:55.100Z,11.00
2019-04-21T23:11:27.972Z,11.53
2019-04-21T23:14:04.027Z,11.00
2019-04-21T23:16:30.120Z,10.63
2019-04-21T23:19:10.987Z,10.37
2019-04-21T23:21:36.376Z,10.50
2019-04-21T23:24:13.497Z,10.80
2019-04-21T23:26:39.454Z,10.77
2019-04-21T23:29:13.931Z,10.10
2019-04-21T23:31:46.107Z,9.57
2019-04-21T23:33:54.663Z,9.93
2019-04-21T23:36:27.794Z,9.83
2019-04-21T23:38:55.393Z,9.83
2019-04-21T23:41:26.033Z,8.20
2019-04-21T23:43:59.174Z,8.33
2019-04-21T23:46:28.188Z,8.53
2019-04-21T23:49:07.331Z,8.67
2019-04-21T23:51:34.488Z,8.90
2019-04-21T23:53:53.466Z,8.27
2019-04-21T23:56:31.528Z,8.67
2019-04-21T23:58:59.061Z,8.90
